Time;durP1;ratioP1;P1;durP2;ratioP2;P2;SDS_P1;SDS_P2;PMS_P1;PMS_P2;Temp;Humidity;BMP_temperature;BMP_pressure;BME280_temperature;BME280_humidity;BME280_pressure;Samples;Min_cycle;Max_cycle;Signal;HPM_P1;HPM_P2
2023/04/05 00:01:36;;;;;;;8.80;4.60;;;6.60;62.80;;;;;;5073129;28;20025;-75
2023/04/05 00:04:02;;;;;;;7.40;3.97;;;6.60;63.00;;;;;;5073097;28;20509;-76
2023/04/05 00:06:28;;;;;;;7.78;3.90;;;6.60;63.30;;;;;;5073102;28;20052;-75
2023/04/05 00:08:58;;;;;;;17.30;4.53;;;6.50;63.40;;;;;;5073022;28;20025;-75
2023/04/05 00:11:31;;;;;;;8.13;3.97;;;6.50;63.50;;;;;;5073069;28;20033;-75
2023/04/05 00:13:58;;;;;;;8.00;3.97;;;6.50;63.80;;;;;;5073125;28;20377;-75
2023/04/05 00:16:26;;;;;;;6.50;4.15;;;6.50;63.90;;;;;;5072995;28;20025;-75
2023/04/05 00:18:52;;;;;;;8.85;4.38;;;6.40;63.90;;;;;;5072017;28;20028;-75
2023/04/05 00:21:22;;;;;;;7.90;3.88;;;6.40;64.10;;;;;;5077047;28;20035;-76
2023/04/05 00:23:57;;;;;;;7.18;3.63;;;6.40;64.10;;;;;;5076101;28;20068;-76
2023/04/05 00:26:23;;;;;;;9.75;4.25;;;6.30;64.20;;;;;;5076913;28;20025;-75
2023/04/05 00:28:49;;;;;;;7.47;4.25;;;6.40;64.40;;;;;;5076834;28;20051;-75
2023/04/05 00:31:15;;;;;;;8.60;4.20;;;6.30;64.30;;;;;;5076903;28;20036;-75
2023/04/05 00:33:41;;;;;;;7.93;4.32;;;6.30;64.30;;;;;;5076820;28;20026;-75
2023/04/05 00:36:09;;;;;;;7.28;4.15;;;6.20;64.10;;;;;;5076801;28;20037;-75
2023/04/05 00:38:34;;;;;;;6.82;3.53;;;6.20;64.10;;;;;;5076778;28;20021;-75
2023/04/05 00:41:00;;;;;;;8.65;4.22;;;6.20;64.10;;;;;;5075648;28;20110;-75
2023/04/05 00:43:26;;;;;;;10.40;4.50;;;6.10;64.20;;;;;;5075709;28;20025;-75
2023/04/05 00:45:52;;;;;;;10.05;4.25;;;6.00;64.40;;;;;;5076611;28;20090;-75
2023/04/05 00:48:18;;;;;;;9.23;4.47;;;6.00;64.70;;;;;;5075538;28;20028;-75
2023/04/05 00:50:45;;;;;;;7.18;3.95;;;6.00;65.20;;;;;;5075424;28;20045;-75
2023/04/05 00:53:11;;;;;;;7.68;4.10;;;6.00;65.50;;;;;;5075532;28;20117;-75
2023/04/05 00:55:37;;;;;;;8.73;3.78;;;6.00;65.50;;;;;;5076401;28;20029;-75
2023/04/05 00:58:03;;;;;;;9.20;4.22;;;6.00;65.60;;;;;;5075369;28;20051;-75
2023/04/05 01:00:29;;;;;;;7.60;3.78;;;5.90;65.60;;;;;;5076309;28;20033;-76
2023/04/05 01:03:00;;;;;;;8.20;4.30;;;5.90;65.50;;;;;;5075257;28;20040;-75
2023/04/05 01:05:53;;;;;;;8.43;4.25;;;5.80;65.50;;;;;;5076311;28;20026;-75
2023/04/05 01:08:34;;;;;;;11.05;4.35;;;5.80;65.60;;;;;;5076170;28;20029;-75
2023/04/05 01:11:04;;;;;;;9.32;4.22;;;5.70;65.70;;;;;;5076342;28;20033;-75
2023/04/05 01:13:30;;;;;;;9.88;4.10;;;5.60;65.90;;;;;;5076279;28;20076;-75
2023/04/05 01:15:55;;;;;;;9.63;4.63;;;5.60;66.00;;;;;;5076013;28;20055;-75
2023/04/05 01:18:23;;;;;;;10.35;4.55;;;5.60;66.10;;;;;;5075986;28;20043;-75
2023/04/05 01:20:55;;;;;;;10.02;4.43;;;5.60;66.10;;;;;;5075016;28;20050;-75
2023/04/05 01:23:44;;;;;;;8.23;4.35;;;5.50;66.10;;;;;;5075978;28;20021;-75
2023/04/05 01:26:32;;;;;;;8.10;4.55;;;5.50;66.20;;;;;;5064102;28;20460;-75
2023/04/05 01:29:35;;;;;;;8.98;4.55;;;5.40;66.30;;;;;;5075904;28;20040;-75
2023/04/05 01:32:22;;;;;;;11.25;4.07;;;5.40;66.50;;;;;;5075527;28;20103;-75
2023/04/05 01:34:59;;;;;;;10.52;4.30;;;5.40;66.60;;;;;;5075815;28;20029;-75
2023/04/05 01:37:29;;;;;;;7.88;3.92;;;5.40;66.70;;;;;;5074670;28;20084;-75
2023/04/05 01:39:55;;;;;;;7.97;4.07;;;5.40;66.80;;;;;;5074802;28;20024;-75
2023/04/05 01:42:26;;;;;;;8.40;4.43;;;5.30;66.80;;;;;;5074530;28;20021;-75
2023/04/05 01:44:53;;;;;;;9.38;3.97;;;5.30;66.90;;;;;;5074588;28;20080;-75
2023/04/05 01:47:19;;;;;;;8.23;4.40;;;5.30;67.00;;;;;;5075496;28;20085;-75
2023/04/05 01:49:45;;;;;;;9.30;4.18;;;5.20;67.20;;;;;;5075337;28;20021;-75
2023/04/05 01:52:11;;;;;;;9.50;4.13;;;5.20;67.20;;;;;;5075215;28;20108;-75
2023/04/05 01:54:36;;;;;;;6.88;3.60;;;5.20;67.20;;;;;;5074387;28;20060;-75
2023/04/05 01:57:03;;;;;;;7.45;4.03;;;5.20;67.40;;;;;;5075232;28;20085;-75
2023/04/05 01:59:29;;;;;;;7.85;4.07;;;5.20;67.50;;;;;;5075230;28;20035;-75
2023/04/05 02:01:55;;;;;;;8.52;3.60;;;5.20;67.50;;;;;;5074240;28;20033;-75
2023/04/05 02:04:20;;;;;;;7.28;3.83;;;5.20;67.70;;;;;;5074112;28;20029;-75
2023/04/05 02:06:46;;;;;;;7.97;3.70;;;5.10;68.50;;;;;;5074305;28;20037;-75
2023/04/05 02:09:11;;;;;;;7.55;4.30;;;5.10;67.70;;;;;;5074982;28;20036;-75
2023/04/05 02:11:37;;;;;;;7.30;4.10;;;5.10;67.60;;;;;;5074998;28;20029;-75
2023/04/05 02:14:03;;;;;;;10.77;4.35;;;5.00;67.70;;;;;;5074943;28;20030;-75
2023/04/05 02:16:31;;;;;;;9.10;3.85;;;5.00;67.90;;;;;;5074152;28;20017;-75
2023/04/05 02:18:58;;;;;;;7.07;3.78;;;5.00;67.90;;;;;;5073976;28;20025;-75
2023/04/05 02:21:25;;;;;;;7.93;3.88;;;4.90;67.90;;;;;;5074836;28;20051;-75
2023/04/05 02:23:51;;;;;;;7.47;4.00;;;4.90;67.90;;;;;;5074788;28;20033;-76
2023/04/05 02:26:17;;;;;;;9.07;4.00;;;4.90;68.00;;;;;;5073631;28;20032;-75
2023/04/05 02:28:42;;;;;;;7.88;4.03;;;4.90;68.00;;;;;;5074555;28;20055;-75
2023/04/05 02:31:10;;;;;;;8.55;3.85;;;4.90;68.00;;;;;;5074648;28;20025;-75
2023/04/05 02:33:35;;;;;;;7.10;3.72;;;4.90;68.10;;;;;;5074584;28;20076;-75
2023/04/05 02:36:05;;;;;;;7.25;3.63;;;4.90;68.10;;;;;;5074501;28;20029;-75
2023/04/05 02:38:32;;;;;;;6.47;3.28;;;4.90;68.10;;;;;;5073470;28;20028;-75
2023/04/05 02:40:58;;;;;;;9.30;4.00;;;4.80;68.10;;;;;;5073393;28;20095;-75
2023/04/05 02:43:24;;;;;;;9.85;3.80;;;4.80;68.00;;;;;;5072755;28;20055;-75
2023/04/05 02:45:50;;;;;;;8.25;3.90;;;4.80;68.20;;;;;;5074337;28;20021;-75
2023/04/05 02:48:16;;;;;;;8.98;4.05;;;4.80;68.20;;;;;;5074227;28;20025;-75
2023/04/05 02:50:49;;;;;;;7.72;4.10;;;4.70;68.20;;;;;;5074026;28;20108;-75
2023/04/05 02:53:18;;;;;;;9.48;4.28;;;4.70;68.40;;;;;;5074285;28;20035;-75
2023/04/05 02:55:56;;;;;;;7.65;3.85;;;4.70;68.50;;;;;;5074151;28;20025;-75
2023/04/05 02:58:23;;;;;;;7.43;3.67;;;4.70;68.50;;;;;;5074133;28;20025;-75
2023/04/05 03:00:53;;;;;;;9.32;4.00;;;4.60;68.40;;;;;;5073001;28;20031;-75
2023/04/05 03:03:20;;;;;;;10.43;4.43;;;4.60;68.60;;;;;;5074073;28;20021;-75
2023/04/05 03:05:47;;;;;;;8.52;4.00;;;4.60;68.70;;;;;;5072950;28;20040;-75
2023/04/05 03:08:18;;;;;;;12.02;4.50;;;4.50;68.80;;;;;;5073861;28;20029;-75
2023/04/05 03:10:45;;;;;;;9.05;4.07;;;4.50;68.90;;;;;;5074067;28;20424;-75
2023/04/05 03:13:11;;;;;;;9.13;3.70;;;4.50;68.80;;;;;;5073857;28;20025;-74
2023/04/05 03:15:36;;;;;;;7.47;3.75;;;4.50;68.90;;;;;;5073798;28;20021;-75
2023/04/05 03:18:02;;;;;;;7.43;3.95;;;4.50;69.10;;;;;;5072905;28;20032;-75
2023/04/05 03:20:28;;;;;;;7.95;4.15;;;4.50;69.20;;;;;;5073676;28;20040;-75
2023/04/05 03:22:53;;;;;;;7.47;4.28;;;4.40;69.30;;;;;;5072946;28;20029;-75
2023/04/05 03:25:19;;;;;;;8.63;3.90;;;4.40;69.50;;;;;;5072596;28;20029;-75
2023/04/05 03:27:44;;;;;;;9.85;4.00;;;4.40;69.60;;;;;;5072408;28;20044;-75
2023/04/05 03:30:11;;;;;;;9.18;4.50;;;4.40;69.70;;;;;;5073524;28;20084;-75
2023/04/05 03:32:36;;;;;;;9.07;4.10;;;4.40;69.80;;;;;;5073527;28;20017;-75
2023/04/05 03:35:02;;;;;;;11.20;3.97;;;4.40;69.80;;;;;;5073455;28;20036;-74
2023/04/05 03:37:27;;;;;;;9.45;3.88;;;4.40;69.80;;;;;;5073414;28;20037;-75
2023/04/05 03:39:53;;;;;;;9.48;4.28;;;4.40;69.90;;;;;;5072515;28;20028;-75
2023/04/05 03:42:19;;;;;;;7.22;4.20;;;4.40;70.10;;;;;;5072459;28;20033;-75
2023/04/05 03:44:46;;;;;;;11.40;4.45;;;4.40;70.40;;;;;;5072414;28;20072;-74
2023/04/05 03:47:12;;;;;;;10.77;4.38;;;4.30;70.30;;;;;;5072451;28;20051;-75
2023/04/05 03:49:37;;;;;;;9.68;4.43;;;4.30;70.30;;;;;;5073183;28;20033;-75
2023/04/05 03:52:03;;;;;;;10.85;4.30;;;4.30;70.30;;;;;;5073047;28;20053;-75
2023/04/05 03:54:29;;;;;;;9.18;3.85;;;4.30;70.30;;;;;;5073184;28;20076;-75
2023/04/05 03:56:55;;;;;;;9.10;4.55;;;4.30;70.30;;;;;;5072263;28;20021;-75
2023/04/05 03:59:21;;;;;;;7.57;4.68;;;4.30;70.30;;;;;;5073172;28;20033;-74
2023/04/05 04:01:46;;;;;;;7.15;4.30;;;4.30;70.20;;;;;;5072040;28;20033;-75
2023/04/05 04:04:12;;;;;;;7.30;4.20;;;4.20;70.20;;;;;;5073131;28;20033;-75
2023/04/05 04:06:38;;;;;;;10.73;4.32;;;4.20;70.50;;;;;;5072060;28;20090;-75
2023/04/05 04:09:04;;;;;;;6.35;4.20;;;4.10;70.60;;;;;;5071940;28;20033;-74
2023/04/05 04:11:30;;;;;;;9.35;4.70;;;4.10;70.80;;;;;;5072029;28;20032;-75
2023/04/05 04:13:56;;;;;;;8.95;4.68;;;4.10;71.00;;;;;;5072232;28;20051;-75
2023/04/05 04:16:21;;;;;;;9.25;4.32;;;4.10;71.00;;;;;;5072045;28;20032;-74
2023/04/05 04:18:47;;;;;;;8.68;4.60;;;4.10;71.10;;;;;;5055346;28;20143;-75
2023/04/05 04:21:15;;;;;;;9.82;4.45;;;4.10;71.20;;;;;;5072864;28;20028;-74
2023/04/05 04:23:44;;;;;;;7.82;4.07;;;4.00;71.20;;;;;;5072927;28;20025;-75
2023/04/05 04:26:10;;;;;;;8.50;4.28;;;4.00;71.50;;;;;;5071899;28;20025;-75
2023/04/05 04:28:38;;;;;;;10.18;4.57;;;4.00;71.50;;;;;;5072798;28;20029;-74
2023/04/05 04:31:04;;;;;;;9.85;4.35;;;4.00;71.50;;;;;;5055578;28;20021;-74
2023/04/05 04:33:30;;;;;;;7.20;4.05;;;3.90;71.50;;;;;;5055361;28;20036;-75
2023/04/05 04:35:55;;;;;;;10.02;4.68;;;3.90;71.70;;;;;;5071933;28;20060;-75
2023/04/05 04:38:24;;;;;;;7.75;4.40;;;3.90;71.80;;;;;;5072749;28;20037;-74
2023/04/05 04:40:52;;;;;;;9.65;4.90;;;3.90;71.80;;;;;;5072749;28;20089;-75
2023/04/05 04:43:25;;;;;;;10.77;4.60;;;3.90;71.90;;;;;;5072764;28;20025;-74
2023/04/05 04:45:53;;;;;;;9.35;5.05;;;3.80;71.90;;;;;;5072778;28;20097;-74
2023/04/05 04:48:19;;;;;;;7.93;4.22;;;3.80;71.90;;;;;;5071689;28;20018;-75
2023/04/05 04:50:47;;;;;;;9.18;4.38;;;3.80;72.10;;;;;;5072460;28;20037;-75
2023/04/05 04:53:16;;;;;;;9.27;4.15;;;3.80;72.20;;;;;;5072873;28;20081;-74
2023/04/05 04:55:41;;;;;;;10.77;4.75;;;3.70;72.20;;;;;;5071736;28;20084;-74
2023/04/05 04:58:09;;;;;;;9.23;4.25;;;3.70;72.20;;;;;;5072701;28;20040;-74
2023/04/05 05:00:40;;;;;;;11.18;4.20;;;3.70;72.60;;;;;;5072601;28;20021;-74
2023/04/05 05:03:07;;;;;;;11.18;5.18;;;3.60;72.60;;;;;;5071541;28;20047;-74
2023/04/05 05:05:33;;;;;;;10.00;5.10;;;3.60;72.80;;;;;;5072553;28;20029;-74
2023/04/05 05:07:58;;;;;;;11.18;4.30;;;3.60;72.80;;;;;;5076093;28;20032;-74
2023/04/05 05:10:24;;;;;;;7.50;4.20;;;3.60;72.90;;;;;;5076141;28;20029;-74
2023/04/05 05:12:50;;;;;;;10.35;5.03;;;3.60;73.00;;;;;;5076168;28;20456;-74
2023/04/05 05:15:16;;;;;;;10.07;4.72;;;3.50;73.00;;;;;;5076083;28;20017;-74
2023/04/05 05:17:43;;;;;;;8.73;4.00;;;3.50;73.00;;;;;;5075175;28;20029;-75
2023/04/05 05:20:09;;;;;;;10.38;4.65;;;3.50;72.90;;;;;;5075073;28;20051;-75
2023/04/05 05:22:39;;;;;;;8.15;4.32;;;3.60;73.00;;;;;;5075899;28;20044;-74
2023/04/05 05:25:06;;;;;;;10.35;4.70;;;3.50;73.00;;;;;;5075902;28;20017;-74
2023/04/05 05:27:32;;;;;;;7.85;4.40;;;3.50;73.20;;;;;;5074689;28;20080;-74
2023/04/05 05:29:58;;;;;;;11.57;5.22;;;3.50;73.40;;;;;;5075793;28;20025;-74
2023/04/05 05:32:24;;;;;;;9.55;4.85;;;3.50;73.40;;;;;;5075736;28;20027;-74
2023/04/05 05:34:49;;;;;;;9.65;4.45;;;3.50;73.70;;;;;;5075693;28;20040;-74
2023/04/05 05:37:16;;;;;;;9.35;4.43;;;3.50;73.80;;;;;;5075696;28;20077;-74
2023/04/05 05:39:45;;;;;;;10.07;5.10;;;3.50;73.90;;;;;;5075620;28;20037;-74
2023/04/05 05:42:10;;;;;;;11.27;5.00;;;3.50;74.00;;;;;;5074639;28;20033;-74
2023/04/05 05:44:37;;;;;;;15.15;5.15;;;3.50;74.00;;;;;;5074517;28;20036;-74
2023/04/05 05:47:03;;;;;;;10.70;5.43;;;3.50;74.10;;;;;;5075453;28;20025;-74
2023/04/05 05:49:28;;;;;;;10.23;4.95;;;3.50;74.40;;;;;;5075357;28;20041;-74
2023/04/05 05:51:56;;;;;;;11.70;5.93;;;3.50;74.70;;;;;;5074296;28;20064;-74
2023/04/05 05:54:21;;;;;;;11.18;5.53;;;3.50;74.90;;;;;;5075492;28;20032;-74
2023/04/05 05:56:47;;;;;;;10.75;5.05;;;3.50;75.60;;;;;;5074361;28;20021;-75
2023/04/05 05:59:13;;;;;;;9.35;5.40;;;3.50;75.50;;;;;;5074333;28;20036;-75
2023/04/05 06:01:41;;;;;;;12.15;5.60;;;3.50;75.70;;;;;;5075188;28;20036;-75
2023/04/05 06:04:08;;;;;;;18.42;7.03;;;3.60;76.40;;;;;;5074358;28;20090;-75
2023/04/05 06:06:34;;;;;;;13.25;6.85;;;3.50;76.30;;;;;;5074202;28;20056;-75
2023/04/05 06:09:00;;;;;;;11.05;5.35;;;3.60;76.70;;;;;;5075006;28;20025;-74
2023/04/05 06:11:25;;;;;;;15.60;6.70;;;3.70;77.00;;;;;;5073977;28;20020;-75
2023/04/05 06:13:53;;;;;;;14.50;6.38;;;3.70;76.80;;;;;;5073934;28;20029;-74
2023/04/05 06:16:22;;;;;;;16.77;6.68;;;3.70;77.10;;;;;;5057484;28;20025;-75
2023/04/05 06:18:48;;;;;;;25.98;7.40;;;3.70;77.20;;;;;;5074282;28;20033;-75
2023/04/05 06:21:14;;;;;;;19.88;7.88;;;3.80;77.50;;;;;;5073931;28;20040;-74
2023/04/05 06:23:41;;;;;;;14.52;7.13;;;3.90;77.70;;;;;;5074951;28;20037;-74
2023/04/05 06:26:07;;;;;;;16.25;7.43;;;3.90;77.90;;;;;;5073685;28;20029;-75
2023/04/05 06:28:33;;;;;;;12.68;7.00;;;3.90;77.90;;;;;;5074510;28;20033;-75
2023/04/05 06:30:58;;;;;;;21.63;7.85;;;3.90;78.00;;;;;;5073936;28;20029;-75
2023/04/05 06:33:25;;;;;;;12.63;6.63;;;3.90;78.40;;;;;;5074584;28;20043;-76
2023/04/05 06:35:51;;;;;;;11.38;5.88;;;4.00;78.50;;;;;;5074699;28;20025;-77
2023/04/05 06:38:17;;;;;;;13.60;6.00;;;4.00;78.30;;;;;;5056896;28;20083;-77
2023/04/05 06:40:43;;;;;;;13.57;6.20;;;4.10;78.40;;;;;;5074491;28;20025;-76
2023/04/05 06:43:09;;;;;;;13.32;5.93;;;4.10;78.80;;;;;;5074386;28;20028;-76
2023/04/05 06:45:36;;;;;;;11.25;5.78;;;4.20;78.70;;;;;;5074385;28;20048;-76
2023/04/05 06:48:01;;;;;;;13.13;6.00;;;4.20;78.40;;;;;;5074265;28;20025;-76
2023/04/05 06:50:27;;;;;;;12.93;5.75;;;4.30;78.40;;;;;;5074021;28;20051;-76
2023/04/05 06:52:52;;;;;;;12.70;5.85;;;4.30;78.40;;;;;;5074235;28;20088;-76
2023/04/05 06:55:18;;;;;;;16.60;5.78;;;4.40;78.50;;;;;;5074151;28;20092;-77
2023/04/05 06:57:44;;;;;;;11.02;5.57;;;4.50;78.50;;;;;;5074090;28;20032;-77
2023/04/05 07:00:12;;;;;;;12.00;5.63;;;4.60;78.60;;;;;;5073072;28;20029;-77
2023/04/05 07:02:38;;;;;;;10.13;5.45;;;4.60;78.40;;;;;;5072736;28;20526;-77
2023/04/05 07:05:04;;;;;;;10.98;5.72;;;4.70;78.40;;;;;;5073997;28;20490;-77
2023/04/05 07:07:37;;;;;;;11.27;5.47;;;4.80;78.20;;;;;;5073947;28;20013;-77
2023/04/05 07:10:03;;;;;;;9.43;5.45;;;4.80;78.20;;;;;;5074219;28;20025;-77
2023/04/05 07:12:29;;;;;;;12.73;5.85;;;4.90;78.80;;;;;;5072927;28;20021;-76
2023/04/05 07:14:55;;;;;;;9.55;5.72;;;5.00;78.20;;;;;;5073441;28;20051;-77
2023/04/05 07:17:20;;;;;;;12.25;6.28;;;5.00;78.00;;;;;;5073797;28;20025;-77
2023/04/05 07:19:46;;;;;;;11.68;5.57;;;5.10;78.10;;;;;;5073761;28;20071;-77
2023/04/05 07:22:12;;;;;;;11.57;5.45;;;5.20;78.10;;;;;;5073684;28;20059;-76
2023/04/05 07:24:37;;;;;;;15.73;6.43;;;5.20;77.90;;;;;;5072603;28;20500;-76
2023/04/05 07:27:06;;;;;;;11.13;5.65;;;5.30;77.80;;;;;;5073540;28;20021;-77
2023/04/05 07:29:33;;;;;;;12.65;6.22;;;5.40;78.50;;;;;;5072193;28;20037;-76
2023/04/05 07:32:00;;;;;;;11.20;6.43;;;5.40;77.40;;;;;;5056103;28;20486;-77
2023/04/05 07:34:26;;;;;;;12.00;6.57;;;5.50;77.20;;;;;;5072604;28;20028;-76
2023/04/05 07:36:51;;;;;;;11.23;6.45;;;5.60;77.00;;;;;;5072726;28;20040;-76
2023/04/05 07:39:18;;;;;;;10.88;5.63;;;5.60;77.10;;;;;;5072497;28;20036;-76
2023/04/05 07:41:44;;;;;;;14.80;7.32;;;5.60;77.70;;;;;;5055908;28;20048;-76
2023/04/05 07:44:10;;;;;;;12.63;6.13;;;5.80;76.90;;;;;;5073495;28;20462;-76
2023/04/05 07:46:35;;;;;;;14.65;6.13;;;5.80;76.80;;;;;;5073323;28;20056;-76
2023/04/05 07:49:01;;;;;;;14.68;6.93;;;5.90;76.60;;;;;;5073364;28;20095;-76
2023/04/05 07:51:26;;;;;;;9.30;5.72;;;6.10;76.40;;;;;;5072104;28;20076;-76
2023/04/05 07:53:52;;;;;;;11.10;6.00;;;6.10;75.60;;;;;;5072391;28;20036;-77
2023/04/05 07:56:18;;;;;;;13.30;6.35;;;6.20;75.80;;;;;;5073180;28;20036;-76
2023/04/05 07:58:43;;;;;;;12.55;6.78;;;6.30;76.00;;;;;;5073016;28;20033;-76
2023/04/05 08:01:10;;;;;;;12.30;6.65;;;6.40;76.00;;;;;;5072281;28;20069;-76
2023/04/05 08:03:38;;;;;;;10.82;6.38;;;6.50;76.50;;;;;;5073110;28;20021;-76
2023/04/05 08:06:18;;;;;;;12.80;6.25;;;6.60;75.90;;;;;;5073116;28;20076;-77
2023/04/05 08:08:44;;;;;;;12.73;5.97;;;6.70;75.70;;;;;;5073073;28;20025;-76
2023/04/05 08:11:10;;;;;;;11.60;6.75;;;6.90;75.40;;;;;;5073027;28;20021;-77
2023/04/05 08:13:39;;;;;;;12.73;6.25;;;7.00;75.20;;;;;;5073057;28;20107;-77
2023/04/05 08:16:07;;;;;;;15.48;7.00;;;7.20;74.70;;;;;;5072132;28;20028;-77
2023/04/05 08:18:32;;;;;;;15.13;6.25;;;7.30;73.50;;;;;;5072036;28;20041;-77
2023/04/05 08:20:58;;;;;;;10.57;5.68;;;7.30;73.70;;;;;;5072025;28;20120;-76
2023/04/05 08:23:24;;;;;;;34.38;14.30;;;7.40;73.70;;;;;;5072945;28;20029;-77
2023/04/05 08:25:50;;;;;;;16.02;7.47;;;7.50;73.40;;;;;;5072098;28;20082;-76
2023/04/05 08:28:16;;;;;;;13.52;6.63;;;7.70;73.70;;;;;;5072756;28;20043;-76
2023/04/05 08:31:02;;;;;;;12.48;6.38;;;7.80;73.50;;;;;;5071911;28;20094;-77
2023/04/05 08:33:29;;;;;;;10.52;5.25;;;7.90;72.90;;;;;;5072392;28;20039;-76
2023/04/05 08:35:56;;;;;;;11.50;5.47;;;7.90;72.60;;;;;;5071938;28;20041;-77
2023/04/05 08:38:22;;;;;;;9.35;5.60;;;8.10;69.60;;;;;;5072877;28;20088;-76
2023/04/05 08:40:48;;;;;;;54.22;20.40;;;8.10;70.60;;;;;;5074261;28;20084;-73
2023/04/05 08:43:23;;;;;;;12.32;6.00;;;8.10;70.50;;;;;;5076706;28;20032;-77
2023/04/05 08:45:50;;;;;;;13.30;6.40;;;8.20;70.00;;;;;;5075660;28;20029;-77
2023/04/05 08:48:17;;;;;;;12.82;5.70;;;8.20;70.10;;;;;;5076506;28;20029;-76
2023/04/05 08:50:51;;;;;;;10.02;6.20;;;8.40;68.90;;;;;;5074977;28;20056;-76
2023/04/05 08:53:19;;;;;;;9.95;5.82;;;8.60;69.50;;;;;;5076582;28;20029;-74
2023/04/05 08:55:53;;;;;;;10.88;5.28;;;8.70;69.10;;;;;;5076502;28;20048;-74
2023/04/05 08:58:21;;;;;;;8.02;5.22;;;8.90;67.80;;;;;;5075720;28;20036;-74
2023/04/05 09:00:47;;;;;;;12.82;6.13;;;9.00;67.50;;;;;;5076375;28;20047;-74
2023/04/05 09:03:17;;;;;;;9.80;5.38;;;9.00;66.30;;;;;;5076461;28;20021;-75
2023/04/05 09:05:52;;;;;;;8.85;4.80;;;9.10;67.90;;;;;;5075378;28;20033;-74
2023/04/05 09:08:17;;;;;;;11.27;5.90;;;9.10;62.90;;;;;;5076282;28;20029;-75
2023/04/05 09:10:44;;;;;;;9.73;5.28;;;9.20;62.80;;;;;;5076234;28;20025;-75
2023/04/05 09:13:09;;;;;;;10.02;5.00;;;9.30;61.90;;;;;;5076144;28;20017;-75
2023/04/05 09:15:39;;;;;;;8.70;4.60;;;9.30;60.80;;;;;;5075131;28;20052;-74
2023/04/05 09:18:31;;;;;;;8.88;4.90;;;9.40;60.10;;;;;;5075981;28;20032;-74
2023/04/05 09:21:06;;;;;;;8.80;4.65;;;9.40;58.60;;;;;;5038567;28;20037;-74
2023/04/05 09:23:36;;;;;;;9.50;4.70;;;9.50;60.10;;;;;;5075942;28;20021;-75
2023/04/05 09:26:20;;;;;;;6.63;4.25;;;9.50;54.40;;;;;;5075823;28;20029;-75
2023/04/05 09:28:46;;;;;;;6.68;4.15;;;9.60;58.30;;;;;;5075773;28;20040;-74
2023/04/05 09:31:35;;;;;;;6.93;4.00;;;9.70;59.00;;;;;;5075024;28;20033;-74
2023/04/05 09:34:05;;;;;;;7.25;3.55;;;9.90;57.40;;;;;;5075937;28;20036;-74
2023/04/05 09:36:34;;;;;;;6.97;3.85;;;10.10;57.30;;;;;;5074739;28;20024;-74
2023/04/05 09:39:07;;;;;;;7.82;3.85;;;10.20;56.40;;;;;;5075685;28;20036;-74
2023/04/05 09:41:35;;;;;;;6.60;3.85;;;10.10;50.50;;;;;;5074760;28;20021;-74
2023/04/05 09:44:01;;;;;;;9.57;4.82;;;10.10;54.00;;;;;;5075702;28;20053;-74
2023/04/05 09:46:38;;;;;;;9.45;5.63;;;10.20;53.90;;;;;;5075579;28;20088;-74
2023/04/05 09:49:05;;;;;;;9.45;4.40;;;10.20;53.50;;;;;;5074439;28;20497;-74
2023/04/05 09:51:36;;;;;;;7.82;4.18;;;10.30;52.90;;;;;;5074536;28;20109;-74
2023/04/05 09:54:03;;;;;;;8.95;4.40;;;10.50;54.00;;;;;;5074412;28;20017;-74
2023/04/05 09:56:37;;;;;;;8.02;4.32;;;10.50;48.60;;;;;;5075055;28;20021;-74
2023/04/05 09:59:09;;;;;;;10.90;6.13;;;10.30;49.10;;;;;;5075056;28;20047;-74
2023/04/05 10:01:35;;;;;;;9.50;4.65;;;10.40;50.00;;;;;;5074061;28;20093;-74
2023/04/05 10:04:01;;;;;;;9.27;4.43;;;10.50;51.10;;;;;;5074847;28;20021;-74
2023/04/05 10:06:42;;;;;;;8.90;4.70;;;10.70;51.90;;;;;;5075106;28;20032;-74
2023/04/05 10:09:10;;;;;;;8.00;4.25;;;10.80;50.30;;;;;;5075092;28;20052;-74
2023/04/05 10:11:37;;;;;;;10.13;4.68;;;10.80;47.40;;;;;;5074229;28;20043;-74
2023/04/05 10:14:05;;;;;;;7.55;4.65;;;10.90;48.60;;;;;;5075032;28;20025;-74
2023/04/05 10:16:59;;;;;;;8.18;4.97;;;10.80;47.10;;;;;;5057345;28;20028;-74
2023/04/05 10:19:51;;;;;;;8.63;4.00;;;11.00;49.70;;;;;;5074966;28;20032;-74
2023/04/05 10:22:24;;;;;;;7.63;5.07;;;11.00;46.50;;;;;;5036435;28;20037;-75
2023/04/05 10:24:54;;;;;;;9.30;5.20;;;11.00;48.70;;;;;;5074855;28;20029;-74
2023/04/05 10:27:31;;;;;;;8.02;4.28;;;11.00;48.00;;;;;;5074742;28;20051;-74
2023/04/05 10:30:05;;;;;;;10.52;4.55;;;11.10;48.00;;;;;;5074696;28;20029;-74
2023/04/05 10:32:49;;;;;;;8.60;4.60;;;11.30;48.80;;;;;;5073657;28;20021;-74
2023/04/05 10:35:19;;;;;;;9.35;4.10;;;11.40;47.10;;;;;;5074586;28;20047;-74
2023/04/05 10:38:09;;;;;;;9.63;5.07;;;11.50;48.10;;;;;;5074595;28;20055;-74
2023/04/05 10:40:36;;;;;;;9.50;5.10;;;11.40;46.10;;;;;;5074676;28;20017;-74
2023/04/05 10:43:05;;;;;;;8.45;4.45;;;11.50;49.00;;;;;;5074465;28;20029;-74
2023/04/05 10:45:32;;;;;;;6.93;4.28;;;11.60;48.70;;;;;;5074358;28;20017;-75
2023/04/05 10:48:15;;;;;;;7.13;4.55;;;11.70;48.00;;;;;;5073419;28;20030;-74
2023/04/05 10:50:42;;;;;;;7.82;4.60;;;11.80;48.10;;;;;;5074218;28;20053;-75
2023/04/05 10:53:09;;;;;;;6.70;4.30;;;11.90;44.40;;;;;;5074305;28;20025;-74
2023/04/05 10:55:35;;;;;;;7.07;4.13;;;11.80;44.10;;;;;;5074251;28;20025;-75
2023/04/05 10:58:02;;;;;;;7.85;4.60;;;11.80;45.60;;;;;;5074121;28;20029;-75
2023/04/05 11:00:28;;;;;;;6.80;4.57;;;11.80;44.90;;;;;;5073285;28;20084;-75
2023/04/05 11:02:55;;;;;;;7.55;4.30;;;11.80;44.70;;;;;;5073696;28;20052;-74
2023/04/05 11:05:28;;;;;;;6.30;4.03;;;11.80;44.20;;;;;;5074059;28;20025;-74
2023/04/05 11:08:00;;;;;;;11.15;4.13;;;11.70;42.30;;;;;;5073880;28;20052;-74
2023/04/05 11:10:27;;;;;;;7.47;4.15;;;11.80;44.00;;;;;;5073986;28;20013;-74
2023/04/05 11:12:55;;;;;;;6.93;3.80;;;11.80;41.20;;;;;;5073892;28;20025;-74
2023/04/05 11:15:27;;;;;;;7.80;4.00;;;11.80;42.90;;;;;;5073837;28;20025;-74
2023/04/05 11:18:10;;;;;;;5.90;2.90;;;11.60;37.80;;;;;;5073834;28;20013;-74
2023/04/05 11:20:47;;;;;;;6.90;3.63;;;11.50;37.70;;;;;;5073822;28;20025;-74
2023/04/05 11:23:17;;;;;;;7.65;4.07;;;11.60;38.10;;;;;;5073771;28;20029;-75
2023/04/05 11:26:02;;;;;;;8.00;3.97;;;11.70;37.90;;;;;;5072672;28;20029;-75
2023/04/05 11:28:39;;;;;;;8.15;3.75;;;11.60;39.20;;;;;;5072563;28;20100;-75
2023/04/05 11:31:18;;;;;;;6.28;4.40;;;11.60;36.80;;;;;;5072723;28;20394;-75
2023/04/05 11:33:43;;;;;;;6.10;3.83;;;11.70;38.90;;;;;;5072519;28;20083;-74
2023/04/05 11:36:09;;;;;;;6.55;4.05;;;11.70;39.40;;;;;;5072502;28;20029;-75
2023/04/05 11:38:36;;;;;;;7.22;3.78;;;11.90;40.70;;;;;;5073429;28;20117;-74
2023/04/05 11:41:20;;;;;;;8.18;4.70;;;12.10;41.20;;;;;;5073594;28;20056;-75
2023/04/05 11:43:51;;;;;;;8.30;4.50;;;12.30;40.80;;;;;;5073456;28;20021;-75
2023/04/05 11:46:17;;;;;;;11.60;4.60;;;12.40;41.80;;;;;;5073505;28;20493;-75
2023/04/05 11:48:48;;;;;;;7.13;4.05;;;12.60;42.40;;;;;;5073383;28;20021;-75
2023/04/05 11:51:15;;;;;;;6.90;4.72;;;12.60;37.60;;;;;;5072174;28;20041;-75
2023/04/05 11:53:45;;;;;;;6.80;3.95;;;12.50;40.60;;;;;;5073270;28;20044;-75
2023/04/05 11:56:14;;;;;;;6.65;4.20;;;12.60;41.30;;;;;;5072280;28;20017;-75
2023/04/05 11:58:40;;;;;;;7.30;4.18;;;12.70;40.20;;;;;;5073159;28;20025;-74
2023/04/05 12:01:07;;;;;;;9.63;5.03;;;12.70;38.20;;;;;;5073189;28;20071;-75
2023/04/05 12:03:33;;;;;;;8.73;4.38;;;12.70;39.80;;;;;;5072113;28;20052;-75
2023/04/05 12:06:02;;;;;;;11.90;4.03;;;12.90;41.30;;;;;;5073119;28;20112;-75
2023/04/05 12:08:41;;;;;;;7.70;4.70;;;13.10;40.30;;;;;;5072008;28;20024;-75
2023/04/05 12:11:09;;;;;;;8.50;4.63;;;13.00;40.10;;;;;;5073059;28;20027;-75
2023/04/05 12:13:35;;;;;;;7.75;4.20;;;13.00;40.30;;;;;;5072017;28;20021;-75
2023/04/05 12:16:06;;;;;;;7.22;4.47;;;13.00;40.50;;;;;;5074906;28;20032;-75
2023/04/05 12:18:36;;;;;;;6.68;4.53;;;13.10;42.10;;;;;;5076154;28;20025;-75
2023/04/05 12:21:05;;;;;;;7.05;4.50;;;13.30;42.00;;;;;;5077198;28;20037;-75
2023/04/05 12:23:31;;;;;;;7.75;4.18;;;13.40;41.30;;;;;;5077144;28;20048;-75
2023/04/05 12:25:57;;;;;;;10.32;4.90;;;13.40;40.50;;;;;;5076976;28;20021;-75
2023/04/05 12:28:24;;;;;;;7.05;4.55;;;13.50;40.70;;;;;;5075938;28;20115;-75
2023/04/05 12:30:57;;;;;;;8.55;5.00;;;13.50;41.90;;;;;;5075927;28;20025;-75
2023/04/05 12:33:31;;;;;;;7.90;4.82;;;13.60;40.40;;;;;;5076979;28;20036;-75
2023/04/05 12:35:58;;;;;;;6.82;4.32;;;13.60;41.60;;;;;;5076934;28;20037;-75
2023/04/05 12:38:28;;;;;;;8.65;4.35;;;13.80;41.70;;;;;;5076838;28;20088;-75
2023/04/05 12:40:58;;;;;;;7.90;5.22;;;13.90;41.40;;;;;;5076892;28;20064;-75
2023/04/05 12:43:24;;;;;;;8.95;4.35;;;14.00;41.70;;;;;;5076001;28;20024;-75
2023/04/05 12:45:54;;;;;;;7.32;4.65;;;14.10;40.90;;;;;;5075655;28;20029;-75
2023/04/05 12:48:22;;;;;;;6.35;4.57;;;14.20;40.30;;;;;;5076643;28;20032;-75
2023/04/05 12:50:53;;;;;;;8.10;4.50;;;14.20;38.60;;;;;;5076433;28;20124;-75
2023/04/05 12:53:20;;;;;;;6.63;4.22;;;14.10;39.70;;;;;;5076608;28;20056;-76
2023/04/05 12:55:54;;;;;;;10.13;4.90;;;14.10;40.30;;;;;;5076546;28;20025;-75
2023/04/05 12:58:22;;;;;;;7.70;4.28;;;14.20;40.00;;;;;;5076474;28;20032;-75